sensor_id;sensor_type;location;lat;lon;timestamp;temperature;humidity
12436;DHT22;6282;51.440;6.938;2024-03-22T00:00:17;11.20;99.90
12436;DHT22;6282;51.440;6.938;2024-03-22T00:02:43;11.20;99.90
12436;DHT22;6282;51.440;6.938;2024-03-22T00:05:11;11.30;99.90
12436;DHT22;6282;51.440;6.938;2024-03-22T00:07:37;11.30;99.90
12436;DHT22;6282;51.440;6.938;2024-03-22T00:10:05;11.30;99.90
12436;DHT22;6282;51.440;6.938;2024-03-22T00:12:31;11.30;99.90
12436;DHT22;6282;51.440;6.938;2024-03-22T00:14:58;11.30;99.90
12436;DHT22;6282;51.440;6.938;2024-03-22T00:17:24;11.30;99.90
12436;DHT22;6282;51.440;6.938;2024-03-22T00:19:50;11.40;99.90
12436;DHT22;6282;51.440;6.938;2024-03-22T00:22:18;11.30;99.90
12436;DHT22;6282;51.440;6.938;2024-03-22T00:24:45;11.40;99.90
12436;DHT22;6282;51.440;6.938;2024-03-22T00:27:11;11.30;99.90
12436;DHT22;6282;51.440;6.938;2024-03-22T00:29:38;11.30;99.90
12436;DHT22;6282;51.440;6.938;2024-03-22T00:32:04;11.40;99.90
12436;DHT22;6282;51.440;6.938;2024-03-22T00:34:33;11.30;99.90
12436;DHT22;6282;51.440;6.938;2024-03-22T00:36:58;11.30;99.90
12436;DHT22;6282;51.440;6.938;2024-03-22T00:39:27;11.30;99.90
12436;DHT22;6282;51.440;6.938;2024-03-22T00:41:52;11.30;99.90
12436;DHT22;6282;51.440;6.938;2024-03-22T00:44:19;11.40;99.90
12436;DHT22;6282;51.440;6.938;2024-03-22T00:46:45;11.40;99.90
12436;DHT22;6282;51.440;6.938;2024-03-22T00:49:12;11.40;99.90
12436;DHT22;6282;51.440;6.938;2024-03-22T00:51:38;11.40;99.90
12436;DHT22;6282;51.440;6.938;2024-03-22T00:54:05;11.40;99.90
12436;DHT22;6282;51.440;6.938;2024-03-22T00:56:32;11.40;99.90
12436;DHT22;6282;51.440;6.938;2024-03-22T00:58:59;11.40;99.90
12436;DHT22;6282;51.440;6.938;2024-03-22T01:01:25;11.40;99.90
12436;DHT22;6282;51.440;6.938;2024-03-22T01:03:51;11.30;99.90
12436;DHT22;6282;51.440;6.938;2024-03-22T01:06:17;11.30;99.90
12436;DHT22;6282;51.440;6.938;2024-03-22T01:08:49;11.30;99.90
12436;DHT22;6282;51.440;6.938;2024-03-22T01:11:15;11.30;99.90
12436;DHT22;6282;51.440;6.938;2024-03-22T01:13:43;11.30;99.90
12436;DHT22;6282;51.440;6.938;2024-03-22T01:16:09;11.30;99.90
12436;DHT22;6282;51.440;6.938;2024-03-22T01:18:36;11.80;99.90
12436;DHT22;6282;51.440;6.938;2024-03-22T01:21:05;11.90;99.90
12436;DHT22;6282;51.440;6.938;2024-03-22T01:23:32;11.40;99.90
12436;DHT22;6282;51.440;6.938;2024-03-22T01:25:58;11.40;99.90
12436;DHT22;6282;51.440;6.938;2024-03-22T01:28:25;11.60;99.90
12436;DHT22;6282;51.440;6.938;2024-03-22T01:30:52;11.90;99.90
12436;DHT22;6282;51.440;6.938;2024-03-22T01:33:19;11.40;99.90
12436;DHT22;6282;51.440;6.938;2024-03-22T01:35:45;12.00;99.90
12436;DHT22;6282;51.440;6.938;2024-03-22T01:38:12;11.40;99.90
12436;DHT22;6282;51.440;6.938;2024-03-22T01:40:37;11.30;99.90
12436;DHT22;6282;51.440;6.938;2024-03-22T01:43:04;11.30;99.90
12436;DHT22;6282;51.440;6.938;2024-03-22T01:45:32;11.90;99.90
12436;DHT22;6282;51.440;6.938;2024-03-22T01:48:01;12.10;99.90
12436;DHT22;6282;51.440;6.938;2024-03-22T01:50:27;11.40;99.90
12436;DHT22;6282;51.440;6.938;2024-03-22T01:52:54;12.20;99.90
12436;DHT22;6282;51.440;6.938;2024-03-22T01:55:20;11.40;99.90
12436;DHT22;6282;51.440;6.938;2024-03-22T01:57:49;11.70;99.90
12436;DHT22;6282;51.440;6.938;2024-03-22T02:00:17;11.50;99.90
12436;DHT22;6282;51.440;6.938;2024-03-22T02:02:44;11.40;99.90
12436;DHT22;6282;51.440;6.938;2024-03-22T02:05:14;11.50;99.90
12436;DHT22;6282;51.440;6.938;2024-03-22T02:07:44;11.70;99.90
12436;DHT22;6282;51.440;6.938;2024-03-22T02:10:11;11.50;99.90
12436;DHT22;6282;51.440;6.938;2024-03-22T02:12:38;12.60;99.90
12436;DHT22;6282;51.440;6.938;2024-03-22T02:15:04;11.60;99.90
12436;DHT22;6282;51.440;6.938;2024-03-22T02:17:32;11.60;99.90
12436;DHT22;6282;51.440;6.938;2024-03-22T02:19:58;12.30;99.90
12436;DHT22;6282;51.440;6.938;2024-03-22T02:22:26;12.00;99.90
12436;DHT22;6282;51.440;6.938;2024-03-22T02:24:54;12.20;99.90
12436;DHT22;6282;51.440;6.938;2024-03-22T02:27:21;11.70;99.90
12436;DHT22;6282;51.440;6.938;2024-03-22T02:29:46;12.20;99.90
12436;DHT22;6282;51.440;6.938;2024-03-22T02:32:13;11.70;99.90
12436;DHT22;6282;51.440;6.938;2024-03-22T02:34:39;11.70;99.90
12436;DHT22;6282;51.440;6.938;2024-03-22T02:37:06;11.70;99.90
12436;DHT22;6282;51.440;6.938;2024-03-22T02:39:32;11.70;99.90
12436;DHT22;6282;51.440;6.938;2024-03-22T02:42:00;11.70;99.90
12436;DHT22;6282;51.440;6.938;2024-03-22T02:44:26;12.50;99.90
12436;DHT22;6282;51.440;6.938;2024-03-22T02:46:53;11.80;99.90
12436;DHT22;6282;51.440;6.938;2024-03-22T02:49:19;12.20;99.90
12436;DHT22;6282;51.440;6.938;2024-03-22T02:51:45;11.80;99.90
12436;DHT22;6282;51.440;6.938;2024-03-22T02:54:11;11.80;99.90
12436;DHT22;6282;51.440;6.938;2024-03-22T02:56:38;11.80;99.90
12436;DHT22;6282;51.440;6.938;2024-03-22T02:59:05;11.80;99.90
12436;DHT22;6282;51.440;6.938;2024-03-22T03:01:32;11.80;99.90
12436;DHT22;6282;51.440;6.938;2024-03-22T03:03:58;13.00;99.90
12436;DHT22;6282;51.440;6.938;2024-03-22T03:06:25;11.80;99.90
12436;DHT22;6282;51.440;6.938;2024-03-22T03:08:51;12.90;99.90
12436;DHT22;6282;51.440;6.938;2024-03-22T03:11:17;11.70;99.90
12436;DHT22;6282;51.440;6.938;2024-03-22T03:13:43;11.70;99.90
12436;DHT22;6282;51.440;6.938;2024-03-22T03:16:12;11.90;99.90
12436;DHT22;6282;51.440;6.938;2024-03-22T03:18:37;12.40;99.90
12436;DHT22;6282;51.440;6.938;2024-03-22T03:21:04;11.80;99.90
12436;DHT22;6282;51.440;6.938;2024-03-22T03:23:30;12.20;99.90
12436;DHT22;6282;51.440;6.938;2024-03-22T03:25:57;12.00;99.90
12436;DHT22;6282;51.440;6.938;2024-03-22T03:28:23;11.60;99.90
12436;DHT22;6282;51.440;6.938;2024-03-22T03:30:51;11.60;99.90
12436;DHT22;6282;51.440;6.938;2024-03-22T03:33:18;11.80;99.90
12436;DHT22;6282;51.440;6.938;2024-03-22T03:35:46;11.60;99.90
12436;DHT22;6282;51.440;6.938;2024-03-22T03:38:12;11.80;99.90
12436;DHT22;6282;51.440;6.938;2024-03-22T03:40:38;11.40;99.90
12436;DHT22;6282;51.440;6.938;2024-03-22T03:43:04;11.80;99.90
12436;DHT22;6282;51.440;6.938;2024-03-22T03:45:31;11.50;99.90
12436;DHT22;6282;51.440;6.938;2024-03-22T03:47:57;11.40;99.90
12436;DHT22;6282;51.440;6.938;2024-03-22T03:50:25;11.40;99.90
12436;DHT22;6282;51.440;6.938;2024-03-22T03:52:51;12.30;99.90
12436;DHT22;6282;51.440;6.938;2024-03-22T03:55:18;11.60;99.90
12436;DHT22;6282;51.440;6.938;2024-03-22T03:57:44;11.30;99.90
12436;DHT22;6282;51.440;6.938;2024-03-22T04:00:11;11.30;99.90
12436;DHT22;6282;51.440;6.938;2024-03-22T04:02:37;11.30;99.90
12436;DHT22;6282;51.440;6.938;2024-03-22T04:05:04;11.60;99.90
12436;DHT22;6282;51.440;6.938;2024-03-22T04:07:32;11.30;99.90
12436;DHT22;6282;51.440;6.938;2024-03-22T04:09:59;11.30;99.90
12436;DHT22;6282;51.440;6.938;2024-03-22T04:12:25;11.90;99.90
12436;DHT22;6282;51.440;6.938;2024-03-22T04:14:52;11.30;99.90
12436;DHT22;6282;51.440;6.938;2024-03-22T04:17:18;11.30;99.90
12436;DHT22;6282;51.440;6.938;2024-03-22T04:19:45;11.90;99.90
12436;DHT22;6282;51.440;6.938;2024-03-22T04:22:11;11.30;99.90
12436;DHT22;6282;51.440;6.938;2024-03-22T04:24:39;11.30;99.90
12436;DHT22;6282;51.440;6.938;2024-03-22T04:27:05;11.30;99.90
12436;DHT22;6282;51.440;6.938;2024-03-22T04:29:32;11.30;99.90
12436;DHT22;6282;51.440;6.938;2024-03-22T04:31:58;11.30;99.90
12436;DHT22;6282;51.440;6.938;2024-03-22T04:34:25;11.30;99.90
12436;DHT22;6282;51.440;6.938;2024-03-22T04:36:51;11.30;99.90
12436;DHT22;6282;51.440;6.938;2024-03-22T04:39:19;11.40;99.90
12436;DHT22;6282;51.440;6.938;2024-03-22T04:41:47;11.40;99.90
12436;DHT22;6282;51.440;6.938;2024-03-22T04:44:14;11.40;99.90
12436;DHT22;6282;51.440;6.938;2024-03-22T04:46:40;11.40;99.90
12436;DHT22;6282;51.440;6.938;2024-03-22T04:49:07;11.40;99.90
12436;DHT22;6282;51.440;6.938;2024-03-22T04:51:33;12.10;99.90
12436;DHT22;6282;51.440;6.938;2024-03-22T04:54:00;12.20;99.90
12436;DHT22;6282;51.440;6.938;2024-03-22T04:56:26;11.40;99.90
12436;DHT22;6282;51.440;6.938;2024-03-22T04:58:55;11.40;99.90
12436;DHT22;6282;51.440;6.938;2024-03-22T05:01:21;11.40;99.90
12436;DHT22;6282;51.440;6.938;2024-03-22T05:03:49;11.40;99.90
12436;DHT22;6282;51.440;6.938;2024-03-22T05:06:15;11.40;99.90
12436;DHT22;6282;51.440;6.938;2024-03-22T05:08:42;11.40;99.90
12436;DHT22;6282;51.440;6.938;2024-03-22T05:11:08;12.00;99.90
12436;DHT22;6282;51.440;6.938;2024-03-22T05:13:35;11.50;99.90
12436;DHT22;6282;51.440;6.938;2024-03-22T05:16:02;11.50;99.90
12436;DHT22;6282;51.440;6.938;2024-03-22T05:18:29;11.40;99.90
12436;DHT22;6282;51.440;6.938;2024-03-22T05:20:55;11.40;99.90
12436;DHT22;6282;51.440;6.938;2024-03-22T05:23:22;11.50;99.90
12436;DHT22;6282;51.440;6.938;2024-03-22T05:25:47;11.50;99.90
12436;DHT22;6282;51.440;6.938;2024-03-22T05:28:14;12.60;99.90
12436;DHT22;6282;51.440;6.938;2024-03-22T05:30:40;11.50;99.90
12436;DHT22;6282;51.440;6.938;2024-03-22T05:33:08;12.00;99.90
12436;DHT22;6282;51.440;6.938;2024-03-22T05:35:34;11.50;99.90
12436;DHT22;6282;51.440;6.938;2024-03-22T05:38:01;11.80;99.90
12436;DHT22;6282;51.440;6.938;2024-03-22T05:40:27;11.50;99.90
12436;DHT22;6282;51.440;6.938;2024-03-22T05:42:53;12.20;99.90
12436;DHT22;6282;51.440;6.938;2024-03-22T05:45:19;12.10;99.90
12436;DHT22;6282;51.440;6.938;2024-03-22T05:47:46;12.20;99.90
12436;DHT22;6282;51.440;6.938;2024-03-22T05:50:13;11.90;99.90
12436;DHT22;6282;51.440;6.938;2024-03-22T05:52:40;12.20;99.90
12436;DHT22;6282;51.440;6.938;2024-03-22T05:55:06;11.50;99.90
12436;DHT22;6282;51.440;6.938;2024-03-22T05:57:33;11.50;99.90
12436;DHT22;6282;51.440;6.938;2024-03-22T05:59:59;11.50;99.90
12436;DHT22;6282;51.440;6.938;2024-03-22T06:02:26;12.00;99.90
12436;DHT22;6282;51.440;6.938;2024-03-22T06:04:52;11.80;99.90
12436;DHT22;6282;51.440;6.938;2024-03-22T06:07:20;12.90;99.90
12436;DHT22;6282;51.440;6.938;2024-03-22T06:09:46;11.50;99.90
12436;DHT22;6282;51.440;6.938;2024-03-22T06:12:13;11.50;99.90
12436;DHT22;6282;51.440;6.938;2024-03-22T06:14:39;11.60;99.90
12436;DHT22;6282;51.440;6.938;2024-03-22T06:17:06;11.60;99.90
12436;DHT22;6282;51.440;6.938;2024-03-22T06:19:32;11.70;99.90
12436;DHT22;6282;51.440;6.938;2024-03-22T06:21:59;11.70;99.90
12436;DHT22;6282;51.440;6.938;2024-03-22T06:24:26;11.90;99.90
12436;DHT22;6282;51.440;6.938;2024-03-22T06:26:53;11.80;99.90
12436;DHT22;6282;51.440;6.938;2024-03-22T06:29:19;12.30;99.90
12436;DHT22;6282;51.440;6.938;2024-03-22T06:31:46;12.50;99.90
12436;DHT22;6282;51.440;6.938;2024-03-22T06:34:12;12.40;99.90
12436;DHT22;6282;51.440;6.938;2024-03-22T06:36:39;12.00;99.90
12436;DHT22;6282;51.440;6.938;2024-03-22T06:39:05;12.30;99.90
12436;DHT22;6282;51.440;6.938;2024-03-22T06:41:37;12.10;99.90
12436;DHT22;6282;51.440;6.938;2024-03-22T06:44:03;12.00;99.90
12436;DHT22;6282;51.440;6.938;2024-03-22T06:46:30;12.10;99.90
12436;DHT22;6282;51.440;6.938;2024-03-22T06:48:57;12.10;99.90
12436;DHT22;6282;51.440;6.938;2024-03-22T06:51:24;12.20;99.90
12436;DHT22;6282;51.440;6.938;2024-03-22T06:53:49;13.30;99.90
12436;DHT22;6282;51.440;6.938;2024-03-22T06:56:17;12.70;99.90
12436;DHT22;6282;51.440;6.938;2024-03-22T06:58:44;12.30;99.90
12436;DHT22;6282;51.440;6.938;2024-03-22T07:01:11;13.30;99.90
12436;DHT22;6282;51.440;6.938;2024-03-22T07:03:37;12.90;99.90
12436;DHT22;6282;51.440;6.938;2024-03-22T07:06:04;13.80;99.90
12436;DHT22;6282;51.440;6.938;2024-03-22T07:08:31;12.80;99.90
12436;DHT22;6282;51.440;6.938;2024-03-22T07:10:58;12.90;99.90
12436;DHT22;6282;51.440;6.938;2024-03-22T07:13:23;13.00;99.90
12436;DHT22;6282;51.440;6.938;2024-03-22T07:15:55;14.00;99.90
12436;DHT22;6282;51.440;6.938;2024-03-22T07:18:20;13.60;99.90
12436;DHT22;6282;51.440;6.938;2024-03-22T07:20:47;13.80;99.90
12436;DHT22;6282;51.440;6.938;2024-03-22T07:23:14;14.00;99.90
12436;DHT22;6282;51.440;6.938;2024-03-22T07:25:41;14.60;99.90
12436;DHT22;6282;51.440;6.938;2024-03-22T07:28:11;14.00;99.90
12436;DHT22;6282;51.440;6.938;2024-03-22T07:30:38;14.10;99.90
12436;DHT22;6282;51.440;6.938;2024-03-22T07:33:05;14.10;99.90
12436;DHT22;6282;51.440;6.938;2024-03-22T07:35:34;14.00;99.90
12436;DHT22;6282;51.440;6.938;2024-03-22T07:38:00;14.50;99.90
12436;DHT22;6282;51.440;6.938;2024-03-22T07:40:27;14.10;99.90
12436;DHT22;6282;51.440;6.938;2024-03-22T07:42:53;14.10;99.90
12436;DHT22;6282;51.440;6.938;2024-03-22T07:45:20;14.60;99.90
12436;DHT22;6282;51.440;6.938;2024-03-22T07:47:45;14.60;99.90
12436;DHT22;6282;51.440;6.938;2024-03-22T07:50:15;14.70;99.90
12436;DHT22;6282;51.440;6.938;2024-03-22T07:52:41;14.10;99.90
12436;DHT22;6282;51.440;6.938;2024-03-22T07:55:08;14.00;99.90
12436;DHT22;6282;51.440;6.938;2024-03-22T07:57:34;14.10;99.90
12436;DHT22;6282;51.440;6.938;2024-03-22T08:00:02;14.10;99.90
12436;DHT22;6282;51.440;6.938;2024-03-22T08:02:28;14.10;99.90
12436;DHT22;6282;51.440;6.938;2024-03-22T08:04:55;15.10;99.90
12436;DHT22;6282;51.440;6.938;2024-03-22T08:07:22;14.50;99.90
12436;DHT22;6282;51.440;6.938;2024-03-22T08:09:49;14.90;99.90
12436;DHT22;6282;51.440;6.938;2024-03-22T08:12:15;14.30;99.90
12436;DHT22;6282;51.440;6.938;2024-03-22T08:14:45;14.40;99.90
12436;DHT22;6282;51.440;6.938;2024-03-22T08:17:10;14.50;99.90
12436;DHT22;6282;51.440;6.938;2024-03-22T08:19:37;14.80;99.90
12436;DHT22;6282;51.440;6.938;2024-03-22T08:22:04;15.20;99.90
12436;DHT22;6282;51.440;6.938;2024-03-22T08:24:32;15.50;99.90
12436;DHT22;6282;51.440;6.938;2024-03-22T08:26:58;15.30;94.00
12436;DHT22;6282;51.440;6.938;2024-03-22T08:29:24;15.10;60.50
12436;DHT22;6282;51.440;6.938;2024-03-22T08:31:50;14.70;23.20
12436;DHT22;6282;51.440;6.938;2024-03-22T08:34:17;14.60;10.80
12436;DHT22;6282;51.440;6.938;2024-03-22T08:36:43;14.50;6.50
12436;DHT22;6282;51.440;6.938;2024-03-22T08:39:10;15.20;1.90
12436;DHT22;6282;51.440;6.938;2024-03-22T08:41:37;15.20;1.00
12436;DHT22;6282;51.440;6.938;2024-03-22T08:44:04;14.70;1.00
12436;DHT22;6282;51.440;6.938;2024-03-22T08:46:30;14.70;1.00
12436;DHT22;6282;51.440;6.938;2024-03-22T08:48:57;14.70;1.00
12436;DHT22;6282;51.440;6.938;2024-03-22T08:51:23;15.00;11.60
12436;DHT22;6282;51.440;6.938;2024-03-22T08:53:50;15.00;99.90
12436;DHT22;6282;51.440;6.938;2024-03-22T08:56:16;15.10;99.90
12436;DHT22;6282;51.440;6.938;2024-03-22T08:58:44;15.20;99.90
12436;DHT22;6282;51.440;6.938;2024-03-22T09:01:10;15.20;99.90
12436;DHT22;6282;51.440;6.938;2024-03-22T09:03:37;15.50;99.90
12436;DHT22;6282;51.440;6.938;2024-03-22T09:06:02;16.10;99.90
12436;DHT22;6282;51.440;6.938;2024-03-22T09:08:30;15.10;99.90
12436;DHT22;6282;51.440;6.938;2024-03-22T09:10:56;15.20;99.90
12436;DHT22;6282;51.440;6.938;2024-03-22T09:13:24;15.30;99.90
12436;DHT22;6282;51.440;6.938;2024-03-22T09:15:58;15.60;99.90
12436;DHT22;6282;51.440;6.938;2024-03-22T09:18:25;15.70;99.90
12436;DHT22;6282;51.440;6.938;2024-03-22T09:20:51;15.80;99.90
12436;DHT22;6282;51.440;6.938;2024-03-22T09:23:19;16.10;99.90
12436;DHT22;6282;51.440;6.938;2024-03-22T09:25:45;16.70;99.90
12436;DHT22;6282;51.440;6.938;2024-03-22T09:28:12;16.90;99.90
12436;DHT22;6282;51.440;6.938;2024-03-22T09:30:38;17.10;99.90
12436;DHT22;6282;51.440;6.938;2024-03-22T09:33:07;17.10;99.90
12436;DHT22;6282;51.440;6.938;2024-03-22T09:35:33;17.60;99.90
12436;DHT22;6282;51.440;6.938;2024-03-22T09:38:00;17.70;99.90
12436;DHT22;6282;51.440;6.938;2024-03-22T09:40:27;17.40;99.90
12436;DHT22;6282;51.440;6.938;2024-03-22T09:42:53;17.20;99.90
12436;DHT22;6282;51.440;6.938;2024-03-22T09:45:21;17.50;99.90
12436;DHT22;6282;51.440;6.938;2024-03-22T09:47:50;16.80;99.90
12436;DHT22;6282;51.440;6.938;2024-03-22T09:50:20;17.00;99.90
12436;DHT22;6282;51.440;6.938;2024-03-22T09:52:47;16.70;99.90
12436;DHT22;6282;51.440;6.938;2024-03-22T09:55:14;16.60;99.90
12436;DHT22;6282;51.440;6.938;2024-03-22T09:57:41;16.20;99.90
12436;DHT22;6282;51.440;6.938;2024-03-22T10:00:09;16.10;99.90
12436;DHT22;6282;51.440;6.938;2024-03-22T10:02:40;16.30;99.90
12436;DHT22;6282;51.440;6.938;2024-03-22T10:05:06;16.30;99.90
12436;DHT22;6282;51.440;6.938;2024-03-22T10:07:34;16.30;99.90
12436;DHT22;6282;51.440;6.938;2024-03-22T10:10:00;16.50;99.90
12436;DHT22;6282;51.440;6.938;2024-03-22T10:12:28;16.60;99.90
12436;DHT22;6282;51.440;6.938;2024-03-22T10:14:54;16.60;99.90
12436;DHT22;6282;51.440;6.938;2024-03-22T10:17:21;16.40;99.90
12436;DHT22;6282;51.440;6.938;2024-03-22T10:19:48;16.40;99.90
12436;DHT22;6282;51.440;6.938;2024-03-22T10:22:16;16.70;99.90
12436;DHT22;6282;51.440;6.938;2024-03-22T10:24:43;16.30;99.90
12436;DHT22;6282;51.440;6.938;2024-03-22T10:27:10;16.30;99.90
12436;DHT22;6282;51.440;6.938;2024-03-22T10:29:36;16.20;99.90
12436;DHT22;6282;51.440;6.938;2024-03-22T10:32:04;16.20;99.90
12436;DHT22;6282;51.440;6.938;2024-03-22T10:34:31;16.00;99.90
12436;DHT22;6282;51.440;6.938;2024-03-22T10:37:00;16.20;99.90
12436;DHT22;6282;51.440;6.938;2024-03-22T10:39:26;15.80;99.90
12436;DHT22;6282;51.440;6.938;2024-03-22T10:41:55;16.00;99.90
12436;DHT22;6282;51.440;6.938;2024-03-22T10:44:22;16.10;99.90
12436;DHT22;6282;51.440;6.938;2024-03-22T10:46:49;16.00;99.90
12436;DHT22;6282;51.440;6.938;2024-03-22T10:49:16;16.10;99.90
12436;DHT22;6282;51.440;6.938;2024-03-22T10:51:46;16.20;99.90
12436;DHT22;6282;51.440;6.938;2024-03-22T10:54:17;16.00;99.90
12436;DHT22;6282;51.440;6.938;2024-03-22T10:56:46;16.40;99.90
12436;DHT22;6282;51.440;6.938;2024-03-22T10:59:18;17.00;99.90
12436;DHT22;6282;51.440;6.938;2024-03-22T11:01:45;16.60;99.90
12436;DHT22;6282;51.440;6.938;2024-03-22T11:04:11;16.50;99.90
12436;DHT22;6282;51.440;6.938;2024-03-22T11:06:38;16.50;99.90
12436;DHT22;6282;51.440;6.938;2024-03-22T11:09:04;16.20;99.90
12436;DHT22;6282;51.440;6.938;2024-03-22T11:11:32;16.20;99.90
12436;DHT22;6282;51.440;6.938;2024-03-22T11:14:02;16.40;99.90
12436;DHT22;6282;51.440;6.938;2024-03-22T11:16:31;16.40;99.90
12436;DHT22;6282;51.440;6.938;2024-03-22T11:18:57;16.80;99.90
12436;DHT22;6282;51.440;6.938;2024-03-22T11:21:25;16.80;99.90
12436;DHT22;6282;51.440;6.938;2024-03-22T11:23:50;16.60;99.90
12436;DHT22;6282;51.440;6.938;2024-03-22T11:26:17;16.70;99.90
12436;DHT22;6282;51.440;6.938;2024-03-22T11:28:44;16.70;99.90
12436;DHT22;6282;51.440;6.938;2024-03-22T11:31:10;16.60;99.90
12436;DHT22;6282;51.440;6.938;2024-03-22T11:33:39;16.40;99.90
12436;DHT22;6282;51.440;6.938;2024-03-22T11:36:05;16.10;99.90
12436;DHT22;6282;51.440;6.938;2024-03-22T11:38:32;16.00;99.90
12436;DHT22;6282;51.440;6.938;2024-03-22T11:40:59;15.90;99.90
12436;DHT22;6282;51.440;6.938;2024-03-22T11:43:28;15.80;99.90
12436;DHT22;6282;51.440;6.938;2024-03-22T11:45:54;15.70;99.90
12436;DHT22;6282;51.440;6.938;2024-03-22T11:48:21;15.60;99.90
12436;DHT22;6282;51.440;6.938;2024-03-22T11:50:49;15.70;99.90
12436;DHT22;6282;51.440;6.938;2024-03-22T11:53:16;15.80;99.90
12436;DHT22;6282;51.440;6.938;2024-03-22T11:55:42;15.60;99.90
12436;DHT22;6282;51.440;6.938;2024-03-22T11:58:09;15.50;99.90
12436;DHT22;6282;51.440;6.938;2024-03-22T12:00:35;15.40;99.90
12436;DHT22;6282;51.440;6.938;2024-03-22T12:03:04;15.20;99.90
12436;DHT22;6282;51.440;6.938;2024-03-22T12:05:31;14.90;99.90
12436;DHT22;6282;51.440;6.938;2024-03-22T12:07:59;14.70;99.90
12436;DHT22;6282;51.440;6.938;2024-03-22T12:10:25;14.60;99.90
12436;DHT22;6282;51.440;6.938;2024-03-22T12:12:52;14.70;99.90
12436;DHT22;6282;51.440;6.938;2024-03-22T12:15:19;14.70;99.90
12436;DHT22;6282;51.440;6.938;2024-03-22T12:17:46;14.70;99.90
12436;DHT22;6282;51.440;6.938;2024-03-22T12:20:12;14.60;99.90
12436;DHT22;6282;51.440;6.938;2024-03-22T12:22:40;14.40;99.90
12436;DHT22;6282;51.440;6.938;2024-03-22T12:25:08;14.20;99.90
12436;DHT22;6282;51.440;6.938;2024-03-22T12:27:37;14.10;99.90
12436;DHT22;6282;51.440;6.938;2024-03-22T12:30:03;14.00;99.90
12436;DHT22;6282;51.440;6.938;2024-03-22T12:32:31;14.10;99.90
12436;DHT22;6282;51.440;6.938;2024-03-22T12:34:57;14.10;99.90
12436;DHT22;6282;51.440;6.938;2024-03-22T12:37:24;14.00;99.90
12436;DHT22;6282;51.440;6.938;2024-03-22T12:39:50;13.90;99.90
12436;DHT22;6282;51.440;6.938;2024-03-22T12:42:19;13.60;99.90
12436;DHT22;6282;51.440;6.938;2024-03-22T12:44:44;13.50;99.90
12436;DHT22;6282;51.440;6.938;2024-03-22T12:47:11;13.40;99.90
12436;DHT22;6282;51.440;6.938;2024-03-22T12:49:37;13.40;99.90
12436;DHT22;6282;51.440;6.938;2024-03-22T12:52:04;13.10;99.90
12436;DHT22;6282;51.440;6.938;2024-03-22T12:54:30;13.20;99.90
12436;DHT22;6282;51.440;6.938;2024-03-22T12:56:57;13.30;99.90
12436;DHT22;6282;51.440;6.938;2024-03-22T12:59:24;13.30;99.90
12436;DHT22;6282;51.440;6.938;2024-03-22T13:01:52;13.30;99.90
12436;DHT22;6282;51.440;6.938;2024-03-22T13:04:19;13.20;99.90
12436;DHT22;6282;51.440;6.938;2024-03-22T13:06:45;13.30;99.90
12436;DHT22;6282;51.440;6.938;2024-03-22T13:09:11;13.30;99.90
12436;DHT22;6282;51.440;6.938;2024-03-22T13:11:38;13.40;99.90
12436;DHT22;6282;51.440;6.938;2024-03-22T13:14:06;13.30;99.90
12436;DHT22;6282;51.440;6.938;2024-03-22T13:16:34;13.30;99.90
12436;DHT22;6282;51.440;6.938;2024-03-22T13:19:00;13.20;99.90
12436;DHT22;6282;51.440;6.938;2024-03-22T13:21:27;13.20;99.90
12436;DHT22;6282;51.440;6.938;2024-03-22T13:23:54;13.10;99.90
12436;DHT22;6282;51.440;6.938;2024-03-22T13:26:21;13.10;99.90
12436;DHT22;6282;51.440;6.938;2024-03-22T13:28:47;13.00;99.90
12436;DHT22;6282;51.440;6.938;2024-03-22T13:31:14;13.00;99.90
12436;DHT22;6282;51.440;6.938;2024-03-22T13:33:42;13.00;99.90
12436;DHT22;6282;51.440;6.938;2024-03-22T13:36:09;12.90;99.90
12436;DHT22;6282;51.440;6.938;2024-03-22T13:38:34;12.90;99.90
12436;DHT22;6282;51.440;6.938;2024-03-22T13:41:01;12.90;99.90
12436;DHT22;6282;51.440;6.938;2024-03-22T13:43:29;12.90;99.90
12436;DHT22;6282;51.440;6.938;2024-03-22T13:45:56;13.00;99.90
12436;DHT22;6282;51.440;6.938;2024-03-22T13:48:23;12.90;99.90
12436;DHT22;6282;51.440;6.938;2024-03-22T13:50:53;12.80;99.90
12436;DHT22;6282;51.440;6.938;2024-03-22T13:53:19;12.80;99.90
12436;DHT22;6282;51.440;6.938;2024-03-22T13:55:47;12.90;99.90
12436;DHT22;6282;51.440;6.938;2024-03-22T13:58:13;13.00;99.90
12436;DHT22;6282;51.440;6.938;2024-03-22T14:00:40;13.00;99.90
12436;DHT22;6282;51.440;6.938;2024-03-22T14:03:06;12.90;99.90
12436;DHT22;6282;51.440;6.938;2024-03-22T14:05:33;12.80;99.90
12436;DHT22;6282;51.440;6.938;2024-03-22T14:08:00;12.90;99.90
12436;DHT22;6282;51.440;6.938;2024-03-22T14:10:27;12.90;99.90
12436;DHT22;6282;51.440;6.938;2024-03-22T14:12:53;12.80;99.90
12436;DHT22;6282;51.440;6.938;2024-03-22T14:15:20;12.90;99.90
12436;DHT22;6282;51.440;6.938;2024-03-22T14:17:46;12.80;99.90
12436;DHT22;6282;51.440;6.938;2024-03-22T14:20:13;12.90;99.90
12436;DHT22;6282;51.440;6.938;2024-03-22T14:22:39;12.80;99.90
12436;DHT22;6282;51.440;6.938;2024-03-22T14:25:08;12.80;99.90
12436;DHT22;6282;51.440;6.938;2024-03-22T14:27:34;12.70;99.90
12436;DHT22;6282;51.440;6.938;2024-03-22T14:30:01;12.70;99.90
12436;DHT22;6282;51.440;6.938;2024-03-22T14:32:30;12.70;99.90
12436;DHT22;6282;51.440;6.938;2024-03-22T14:34:57;12.60;99.90
12436;DHT22;6282;51.440;6.938;2024-03-22T14:37:24;12.60;99.90
12436;DHT22;6282;51.440;6.938;2024-03-22T14:39:50;12.50;99.90
12436;DHT22;6282;51.440;6.938;2024-03-22T14:42:18;12.60;99.90
12436;DHT22;6282;51.440;6.938;2024-03-22T14:44:44;12.60;99.90
12436;DHT22;6282;51.440;6.938;2024-03-22T14:47:11;12.60;99.90
12436;DHT22;6282;51.440;6.938;2024-03-22T14:49:36;12.60;99.90
12436;DHT22;6282;51.440;6.938;2024-03-22T14:52:05;12.60;99.90
12436;DHT22;6282;51.440;6.938;2024-03-22T14:54:31;12.40;99.90
12436;DHT22;6282;51.440;6.938;2024-03-22T14:56:58;12.40;99.90
12436;DHT22;6282;51.440;6.938;2024-03-22T14:59:28;12.30;99.90
12436;DHT22;6282;51.440;6.938;2024-03-22T15:01:55;12.20;99.90
12436;DHT22;6282;51.440;6.938;2024-03-22T15:04:21;12.20;99.90
12436;DHT22;6282;51.440;6.938;2024-03-22T15:06:48;12.20;99.90
12436;DHT22;6282;51.440;6.938;2024-03-22T15:09:16;12.20;99.90
12436;DHT22;6282;51.440;6.938;2024-03-22T15:11:44;12.30;99.90
12436;DHT22;6282;51.440;6.938;2024-03-22T15:14:10;12.30;99.90
12436;DHT22;6282;51.440;6.938;2024-03-22T15:16:38;12.40;99.90
12436;DHT22;6282;51.440;6.938;2024-03-22T15:19:04;12.40;99.90
12436;DHT22;6282;51.440;6.938;2024-03-22T15:21:30;12.30;99.90
12436;DHT22;6282;51.440;6.938;2024-03-22T15:23:56;12.40;99.90
12436;DHT22;6282;51.440;6.938;2024-03-22T15:26:23;12.40;99.90
12436;DHT22;6282;51.440;6.938;2024-03-22T15:28:50;12.40;99.90
12436;DHT22;6282;51.440;6.938;2024-03-22T15:31:17;12.40;99.90
12436;DHT22;6282;51.440;6.938;2024-03-22T15:33:44;12.40;99.90
12436;DHT22;6282;51.440;6.938;2024-03-22T15:36:11;12.50;99.90
12436;DHT22;6282;51.440;6.938;2024-03-22T15:38:36;12.50;99.90
12436;DHT22;6282;51.440;6.938;2024-03-22T15:41:03;12.50;99.90
12436;DHT22;6282;51.440;6.938;2024-03-22T15:43:29;12.40;99.90